createdAt,value
2019-02-21T00:01:34.772Z,3.47
2019-02-21T00:04:04.907Z,3.42
2019-02-21T00:06:31.183Z,3.42
2019-02-21T00:08:57.358Z,3.41
2019-02-21T00:11:23.508Z,3.36
2019-02-21T00:13:49.646Z,3.37
2019-02-21T00:16:15.908Z,3.37
2019-02-21T00:18:42.004Z,3.36
2019-02-21T00:21:08.314Z,3.35
2019-02-21T00:23:37.885Z,3.38
2019-02-21T00:26:08.794Z,3.39
2019-02-21T00:28:34.922Z,3.41
2019-02-21T00:31:01.170Z,3.36
2019-02-21T00:33:30.797Z,3.35
2019-02-21T00:35:56.996Z,3.35
2019-02-21T00:38:23.110Z,3.33
2019-02-21T00:40:49.342Z,3.30
2019-02-21T00:43:15.394Z,3.28
2019-02-21T00:45:45.493Z,3.24
2019-02-21T00:48:14.866Z,3.23
2019-02-21T00:50:47.191Z,3.21
2019-02-21T00:53:13.274Z,3.22
2019-02-21T00:55:39.496Z,3.24
2019-02-21T00:58:05.585Z,3.23
2019-02-21T01:00:31.792Z,3.21
2019-02-21T01:02:58.928Z,3.17
2019-02-21T01:05:25.116Z,3.11
2019-02-21T01:07:51.278Z,3.08
2019-02-21T01:10:17.424Z,3.07
2019-02-21T01:12:43.551Z,3.06
2019-02-21T01:15:09.741Z,3.04
2019-02-21T01:17:35.899Z,3.04
2019-02-21T01:20:05.859Z,3.04
2019-02-21T01:22:31.953Z,3.01
2019-02-21T01:24:58.166Z,2.99
2019-02-21T01:27:24.263Z,2.99
2019-02-21T01:29:53.457Z,2.99
2019-02-21T01:32:20.945Z,2.97
2019-02-21T01:34:48.229Z,2.97
2019-02-21T01:37:15.871Z,2.97
2019-02-21T01:39:42.080Z,2.97
2019-02-21T01:42:11.054Z,2.97
2019-02-21T01:44:37.384Z,3.00
2019-02-21T01:47:03.600Z,3.04
2019-02-21T01:49:30.811Z,3.04
2019-02-21T01:51:56.994Z,3.01
2019-02-21T01:54:23.120Z,3.00
2019-02-21T01:56:49.329Z,3.04
2019-02-21T01:59:15.447Z,3.08
2019-02-21T02:01:43.003Z,3.06
2019-02-21T02:04:09.100Z,3.04
2019-02-21T02:06:35.314Z,3.04
2019-02-21T02:09:01.402Z,3.07
2019-02-21T02:11:29.501Z,3.06
2019-02-21T02:13:56.803Z,3.02
2019-02-21T02:16:22.998Z,2.99
2019-02-21T02:18:49.227Z,2.90
2019-02-21T02:21:15.418Z,2.87
2019-02-21T02:23:45.226Z,2.84
2019-02-21T02:26:11.558Z,2.83
2019-02-21T02:28:37.735Z,2.78
2019-02-21T02:31:03.953Z,2.77
2019-02-21T02:33:31.759Z,2.72
2019-02-21T02:35:58.022Z,2.71
2019-02-21T02:38:24.215Z,2.71
2019-02-21T02:40:50.464Z,2.70
2019-02-21T02:43:16.718Z,2.67
2019-02-21T02:45:42.961Z,2.66
2019-02-21T02:48:09.248Z,2.67
2019-02-21T02:50:35.349Z,2.64
2019-02-21T02:53:05.447Z,2.60
2019-02-21T02:55:31.603Z,2.59
2019-02-21T02:57:58.019Z,2.60
2019-02-21T03:00:24.204Z,2.58
2019-02-21T03:02:50.400Z,2.56
2019-02-21T03:05:16.515Z,2.56
2019-02-21T03:07:42.755Z,2.58
2019-02-21T03:10:10.659Z,2.61
2019-02-21T03:12:36.856Z,2.66
2019-02-21T03:15:04.465Z,2.70
2019-02-21T03:17:33.943Z,2.74
2019-02-21T03:20:00.035Z,2.78
2019-02-21T03:22:26.332Z,2.81
2019-02-21T03:24:52.430Z,2.79
2019-02-21T03:27:18.738Z,2.79
2019-02-21T03:29:44.837Z,2.80
2019-02-21T03:32:11.068Z,2.80
2019-02-21T03:34:37.312Z,2.79
2019-02-21T03:37:05.631Z,2.77
2019-02-21T03:39:32.024Z,2.79
2019-02-21T03:42:01.101Z,2.82
2019-02-21T03:44:27.343Z,2.85
2019-02-21T03:46:53.627Z,2.88
2019-02-21T03:49:19.895Z,2.93
2019-02-21T03:51:46.058Z,2.95
2019-02-21T03:54:13.084Z,2.98
2019-02-21T03:56:39.348Z,3.01
2019-02-21T03:59:05.699Z,3.06
2019-02-21T04:01:31.889Z,3.07
2019-02-21T04:03:58.108Z,3.10
2019-02-21T04:06:24.209Z,3.11
2019-02-21T04:08:50.438Z,3.13
2019-02-21T04:11:16.550Z,3.16
2019-02-21T04:13:44.112Z,3.18
2019-02-21T04:16:10.235Z,3.20
2019-02-21T04:18:36.492Z,3.19
2019-02-21T04:21:02.705Z,3.18
2019-02-21T04:23:28.912Z,3.21
2019-02-21T04:25:55.154Z,3.21
2019-02-21T04:28:23.929Z,3.22
2019-02-21T04:30:50.037Z,3.25
2019-02-21T04:33:16.227Z,3.25
2019-02-21T04:35:42.399Z,3.27
2019-02-21T04:38:08.687Z,3.26
2019-02-21T04:40:34.805Z,3.26
2019-02-21T04:43:01.095Z,3.24
2019-02-21T04:45:27.183Z,3.24
2019-02-21T04:47:53.378Z,3.27
2019-02-21T04:50:19.466Z,3.25
2019-02-21T04:52:48.034Z,3.23
2019-02-21T04:55:14.970Z,3.20
2019-02-21T04:57:41.174Z,3.24
2019-02-21T05:00:12.007Z,3.30
2019-02-21T05:02:38.205Z,3.34
2019-02-21T05:05:04.923Z,3.38
2019-02-21T05:07:34.710Z,3.40
2019-02-21T05:10:03.669Z,3.39
2019-02-21T05:12:30.199Z,3.43
2019-02-21T05:14:56.473Z,3.48
2019-02-21T05:17:22.729Z,3.47
2019-02-21T05:19:49.071Z,3.45
2019-02-21T05:22:15.332Z,3.43
2019-02-21T05:24:41.496Z,3.44
2019-02-21T05:27:09.667Z,3.48
2019-02-21T05:29:35.946Z,3.53
2019-02-21T05:32:20.656Z,3.60
2019-02-21T05:35:05.361Z,3.66
2019-02-21T05:37:42.659Z,3.70
2019-02-21T05:40:10.912Z,3.73
2019-02-21T05:42:39.298Z,3.75
2019-02-21T05:45:11.322Z,3.79
2019-02-21T05:47:43.287Z,3.83
2019-02-21T05:50:31.760Z,3.85
2019-02-21T05:53:09.869Z,3.88
2019-02-21T05:55:40.870Z,3.87
2019-02-21T05:58:08.943Z,3.89
2019-02-21T06:00:55.553Z,3.92
2019-02-21T06:03:24.804Z,3.96
2019-02-21T06:05:56.020Z,3.98
2019-02-21T06:08:25.095Z,4.00
2019-02-21T06:10:59.157Z,4.01
2019-02-21T06:13:48.751Z,3.99
2019-02-21T06:16:22.654Z,4.02
2019-02-21T06:18:50.667Z,4.04
2019-02-21T06:21:18.775Z,4.02
2019-02-21T06:23:50.145Z,3.99
2019-02-21T06:26:27.682Z,3.99
2019-02-21T06:28:56.224Z,3.98
2019-02-21T06:31:22.464Z,3.96
2019-02-21T06:33:49.528Z,3.96
2019-02-21T06:36:15.953Z,3.93
2019-02-21T06:38:42.289Z,3.91
2019-02-21T06:41:08.403Z,3.88
2019-02-21T06:43:35.033Z,3.83
2019-02-21T06:46:02.113Z,3.79
2019-02-21T06:48:28.446Z,3.74
2019-02-21T06:50:54.683Z,3.70
2019-02-21T06:53:21.988Z,3.70
2019-02-21T06:55:48.179Z,3.68
2019-02-21T06:58:14.465Z,3.66
2019-02-21T07:00:40.975Z,3.66
2019-02-21T07:03:15.524Z,3.66
2019-02-21T07:05:36.963Z,3.70
2019-02-21T07:08:03.388Z,3.79
2019-02-21T07:10:29.693Z,3.87
2019-02-21T07:12:56.726Z,3.98
2019-02-21T07:15:23.623Z,4.04
2019-02-21T07:17:49.932Z,4.12
2019-02-21T07:20:17.201Z,4.17
2019-02-21T07:22:43.488Z,4.22
2019-02-21T07:25:24.000Z,4.34
2019-02-21T07:27:50.259Z,4.43
2019-02-21T07:30:20.195Z,4.54
2019-02-21T07:32:45.348Z,4.63
2019-02-21T07:35:11.544Z,4.74
2019-02-21T07:37:37.922Z,4.82
2019-02-21T07:40:05.746Z,4.87
2019-02-21T07:42:32.733Z,4.89
2019-02-21T07:44:59.890Z,4.94
2019-02-21T07:47:26.249Z,4.95
2019-02-21T07:49:52.413Z,5.00
2019-02-21T07:52:18.577Z,5.01
2019-02-21T07:54:44.785Z,5.10
2019-02-21T07:57:11.875Z,5.13
2019-02-21T07:59:38.385Z,5.20
2019-02-21T08:02:04.877Z,5.25
2019-02-21T08:04:31.782Z,5.31
2019-02-21T08:06:58.235Z,5.42
2019-02-21T08:09:27.658Z,5.54
2019-02-21T08:11:53.059Z,5.65
2019-02-21T08:14:19.299Z,5.76
2019-02-21T08:16:45.491Z,5.84
2019-02-21T08:19:11.642Z,5.90
2019-02-21T08:21:37.870Z,6.04
2019-02-21T08:24:04.053Z,6.13
2019-02-21T08:26:30.221Z,6.19
2019-02-21T08:28:56.451Z,6.26
2019-02-21T08:31:22.582Z,6.34
2019-02-21T08:33:58.357Z,6.43
2019-02-21T08:36:21.788Z,6.54
2019-02-21T08:38:47.992Z,6.60
2019-02-21T08:41:14.674Z,6.62
2019-02-21T08:43:41.071Z,6.65
2019-02-21T08:46:07.173Z,6.69
2019-02-21T08:48:33.545Z,6.77
2019-02-21T08:50:59.657Z,6.82
2019-02-21T08:53:27.972Z,6.83
2019-02-21T08:55:55.932Z,6.83
2019-02-21T08:58:22.050Z,6.85
2019-02-21T09:00:48.241Z,6.87
2019-02-21T09:03:14.410Z,6.92
2019-02-21T09:05:40.666Z,6.98
2019-02-21T09:08:06.904Z,6.92
2019-02-21T09:10:33.084Z,6.93
2019-02-21T09:12:59.331Z,6.97
2019-02-21T09:15:25.433Z,7.03
2019-02-21T09:17:54.032Z,7.12
2019-02-21T09:20:19.700Z,7.16
2019-02-21T09:22:45.895Z,7.18
2019-02-21T09:25:13.763Z,7.17
2019-02-21T09:27:39.947Z,7.20
2019-02-21T09:30:13.099Z,7.24
2019-02-21T09:32:42.039Z,7.32
2019-02-21T09:35:08.323Z,7.40
2019-02-21T09:37:34.534Z,7.39
2019-02-21T09:40:00.649Z,7.42
2019-02-21T09:42:26.865Z,7.40
2019-02-21T09:44:52.969Z,7.39
2019-02-21T09:47:22.765Z,7.38
2019-02-21T09:49:49.069Z,7.36
2019-02-21T09:52:15.349Z,7.32
2019-02-21T09:54:48.297Z,7.32
2019-02-21T09:57:14.530Z,7.33
2019-02-21T09:59:40.629Z,7.38
2019-02-21T10:02:10.232Z,7.42
2019-02-21T10:04:36.345Z,7.51
2019-02-21T10:07:07.479Z,7.58
2019-02-21T10:09:33.561Z,7.66
2019-02-21T10:11:59.778Z,7.77
2019-02-21T10:14:26.685Z,7.85
2019-02-21T10:16:55.372Z,7.83
2019-02-21T10:19:21.486Z,7.90
2019-02-21T10:21:47.727Z,7.96
2019-02-21T10:24:17.295Z,8.05
2019-02-21T10:26:47.206Z,8.16
2019-02-21T10:29:17.163Z,8.28
2019-02-21T10:31:43.342Z,8.35
2019-02-21T10:34:09.575Z,8.35
2019-02-21T10:36:40.367Z,8.38
2019-02-21T10:39:06.514Z,8.42
2019-02-21T10:41:35.979Z,8.54
2019-02-21T10:44:02.139Z,8.59
2019-02-21T10:46:30.759Z,8.66
2019-02-21T10:48:56.362Z,8.75
2019-02-21T10:51:23.535Z,8.85
2019-02-21T10:53:49.683Z,8.87
2019-02-21T10:56:17.314Z,8.84
2019-02-21T10:58:43.677Z,8.74
2019-02-21T11:01:13.236Z,8.60
2019-02-21T11:03:42.344Z,8.50
2019-02-21T11:06:08.517Z,8.34
2019-02-21T11:08:34.693Z,8.20
2019-02-21T11:11:06.196Z,8.12
2019-02-21T11:13:32.367Z,8.08
2019-02-21T11:15:58.640Z,8.03
2019-02-21T11:18:24.893Z,8.04
2019-02-21T11:20:54.268Z,8.08
2019-02-21T11:23:22.813Z,8.08
2019-02-21T11:25:49.054Z,8.15
2019-02-21T11:28:18.369Z,8.26
2019-02-21T11:30:44.598Z,8.47
2019-02-21T11:33:13.626Z,8.71
2019-02-21T11:35:40.120Z,8.92
2019-02-21T11:38:06.345Z,9.13
2019-02-21T11:40:32.687Z,9.36
2019-02-21T11:43:03.886Z,9.46
2019-02-21T11:45:33.293Z,9.62
2019-02-21T11:47:59.533Z,9.84
2019-02-21T11:50:25.756Z,9.97
2019-02-21T11:52:51.999Z,10.24
2019-02-21T11:55:20.462Z,10.02
2019-02-21T11:57:46.650Z,9.86
2019-02-21T12:00:19.382Z,9.79
2019-02-21T12:02:47.555Z,9.68
2019-02-21T12:05:17.397Z,9.55
2019-02-21T12:07:47.723Z,9.36
2019-02-21T12:10:13.883Z,9.23
2019-02-21T12:12:40.055Z,9.09
2019-02-21T12:15:11.905Z,8.96
2019-02-21T12:17:38.113Z,8.85
2019-02-21T12:20:08.574Z,8.78
2019-02-21T12:22:34.790Z,8.70
2019-02-21T12:25:00.947Z,8.68
2019-02-21T12:27:27.098Z,8.60
2019-02-21T12:29:53.321Z,8.59
2019-02-21T12:32:19.979Z,8.50
2019-02-21T12:34:46.182Z,8.42
2019-02-21T12:37:12.301Z,8.34
2019-02-21T12:39:38.526Z,8.33
2019-02-21T12:42:04.704Z,8.32
2019-02-21T12:44:32.763Z,8.24
2019-02-21T12:46:58.921Z,8.16
2019-02-21T12:49:27.107Z,8.12
2019-02-21T12:51:57.344Z,8.08
2019-02-21T12:54:24.721Z,8.02
2019-02-21T12:56:51.500Z,7.99
2019-02-21T12:59:17.747Z,7.98
2019-02-21T13:01:45.046Z,7.93
2019-02-21T13:04:11.305Z,7.87
2019-02-21T13:06:37.488Z,7.84
2019-02-21T13:09:04.261Z,7.76
2019-02-21T13:11:32.135Z,7.73
2019-02-21T13:13:59.104Z,7.77
2019-02-21T13:16:25.271Z,7.78
2019-02-21T13:18:51.572Z,7.84
2019-02-21T13:21:17.698Z,7.89
2019-02-21T13:23:45.125Z,7.99
2019-02-21T13:26:12.319Z,8.04
2019-02-21T13:28:38.616Z,8.08
2019-02-21T13:31:04.773Z,8.08
2019-02-21T13:33:30.997Z,8.09
2019-02-21T13:35:59.320Z,8.08
2019-02-21T13:38:25.552Z,8.11
2019-02-21T13:40:51.753Z,8.16
2019-02-21T13:43:19.278Z,8.21
2019-02-21T13:45:45.471Z,8.27
2019-02-21T13:48:11.637Z,8.34
2019-02-21T13:50:40.433Z,8.43
2019-02-21T13:53:06.675Z,8.57
2019-02-21T13:55:32.906Z,8.68
2019-02-21T13:58:00.554Z,8.79
2019-02-21T14:00:26.884Z,8.85
2019-02-21T14:02:53.017Z,8.92
2019-02-21T14:05:20.930Z,8.99
2019-02-21T14:07:47.097Z,9.07
2019-02-21T14:10:13.466Z,9.12
2019-02-21T14:12:39.646Z,9.13
2019-02-21T14:15:26.982Z,9.18
2019-02-21T14:17:53.100Z,9.38
2019-02-21T14:20:19.322Z,9.48
2019-02-21T14:22:45.419Z,9.52
2019-02-21T14:25:11.636Z,9.46
2019-02-21T14:27:41.370Z,9.52
2019-02-21T14:30:13.003Z,9.54
2019-02-21T14:32:39.190Z,9.57
2019-02-21T14:35:07.903Z,9.57
2019-02-21T14:37:39.069Z,9.53
2019-02-21T14:40:07.038Z,9.46
2019-02-21T14:42:33.269Z,9.39
2019-02-21T14:44:59.472Z,9.35
2019-02-21T14:47:25.832Z,9.41
2019-02-21T14:49:52.095Z,9.29
2019-02-21T14:52:18.298Z,9.15
2019-02-21T14:54:44.636Z,9.00
2019-02-21T14:57:10.927Z,8.90
2019-02-21T14:59:44.629Z,8.81
2019-02-21T15:02:10.292Z,8.70
2019-02-21T15:04:38.279Z,8.65
2019-02-21T15:07:06.607Z,8.62
2019-02-21T15:09:33.129Z,8.61
2019-02-21T15:11:59.356Z,8.65
2019-02-21T15:14:25.720Z,8.66
2019-02-21T15:16:51.922Z,8.67
2019-02-21T15:19:18.040Z,8.64
2019-02-21T15:21:45.413Z,8.58
2019-02-21T15:24:13.124Z,8.52
2019-02-21T15:26:39.962Z,8.42
2019-02-21T15:29:06.141Z,8.36
2019-02-21T15:31:32.282Z,8.33
2019-02-21T15:33:58.555Z,8.33
2019-02-21T15:36:24.837Z,8.30
2019-02-21T15:38:51.108Z,8.26
2019-02-21T15:41:17.473Z,8.24
2019-02-21T15:43:43.726Z,8.21
2019-02-21T15:46:10.240Z,8.14
2019-02-21T15:48:40.805Z,8.08
2019-02-21T15:51:12.662Z,8.03
2019-02-21T15:53:40.267Z,7.97
2019-02-21T15:56:06.613Z,7.94
2019-02-21T15:58:32.977Z,7.85
2019-02-21T16:00:59.147Z,7.78
2019-02-21T16:03:27.499Z,7.74
2019-02-21T16:05:53.678Z,7.73
2019-02-21T16:08:19.842Z,7.69
2019-02-21T16:10:46.031Z,7.65
2019-02-21T16:13:12.301Z,7.63
2019-02-21T16:15:38.522Z,7.62
2019-02-21T16:18:07.386Z,7.58
2019-02-21T16:20:33.545Z,7.53
2019-02-21T16:22:59.858Z,7.49
2019-02-21T16:25:30.519Z,7.45
2019-02-21T16:27:56.765Z,7.42
2019-02-21T16:30:22.953Z,7.41
2019-02-21T16:32:53.906Z,7.40
2019-02-21T16:35:20.094Z,7.37
2019-02-21T16:37:46.349Z,7.34
2019-02-21T16:40:43.423Z,7.31
2019-02-21T16:43:09.595Z,7.29
2019-02-21T16:45:43.721Z,7.30
2019-02-21T16:48:05.137Z,7.28
2019-02-21T16:50:31.318Z,7.25
2019-02-21T16:52:57.545Z,7.24
2019-02-21T16:55:23.749Z,7.25
2019-02-21T16:57:49.949Z,7.23
2019-02-21T17:00:38.891Z,7.22
2019-02-21T17:02:56.580Z,7.23
2019-02-21T17:05:23.007Z,7.21
2019-02-21T17:07:49.245Z,7.21
2019-02-21T17:10:15.662Z,7.19
2019-02-21T17:12:41.852Z,7.16
2019-02-21T17:15:10.267Z,7.17
2019-02-21T17:17:36.647Z,7.18
2019-02-21T17:20:05.908Z,7.16
2019-02-21T17:22:32.137Z,7.13
2019-02-21T17:24:58.317Z,7.14
2019-02-21T17:27:27.914Z,7.08
2019-02-21T17:29:54.469Z,6.90
2019-02-21T17:32:23.736Z,6.72
2019-02-21T17:34:50.012Z,6.63
2019-02-21T17:37:24.621Z,6.53
2019-02-21T17:39:44.858Z,6.49
2019-02-21T17:42:11.066Z,6.40
2019-02-21T17:44:37.229Z,6.35
2019-02-21T17:47:03.440Z,6.32
2019-02-21T17:49:30.287Z,6.32
2019-02-21T17:52:01.002Z,6.28
2019-02-21T17:54:27.812Z,6.25
2019-02-21T17:56:54.153Z,6.24
2019-02-21T17:59:20.320Z,6.25
2019-02-21T18:01:46.487Z,6.22
2019-02-21T18:04:14.437Z,6.23
2019-02-21T18:06:45.538Z,6.20
2019-02-21T18:09:11.686Z,6.10
2019-02-21T18:11:37.931Z,6.04
2019-02-21T18:14:04.343Z,6.03
2019-02-21T18:16:30.507Z,6.03
2019-02-21T18:18:56.742Z,6.00
2019-02-21T18:21:23.001Z,6.00
2019-02-21T18:23:49.213Z,6.01
2019-02-21T18:26:15.444Z,5.98
2019-02-21T18:28:41.891Z,5.91
2019-02-21T18:31:21.859Z,5.92
2019-02-21T18:33:52.062Z,5.94
2019-02-21T18:36:22.364Z,5.92
2019-02-21T18:38:48.622Z,5.91
2019-02-21T18:41:14.828Z,5.92
2019-02-21T18:43:41.092Z,5.93
2019-02-21T18:46:09.170Z,5.91
2019-02-21T18:48:35.480Z,5.91
2019-02-21T18:51:01.609Z,5.88
2019-02-21T18:53:31.294Z,5.87
2019-02-21T18:55:57.571Z,5.85
2019-02-21T18:58:23.957Z,5.85
2019-02-21T19:00:54.041Z,5.86
2019-02-21T19:03:21.130Z,5.88
2019-02-21T19:05:51.424Z,5.87
2019-02-21T19:08:17.534Z,5.87
2019-02-21T19:10:43.759Z,5.87
2019-02-21T19:13:09.850Z,5.90
2019-02-21T19:15:36.178Z,5.90
2019-02-21T19:18:02.362Z,5.92
2019-02-21T19:20:28.671Z,5.93
2019-02-21T19:22:54.877Z,5.92
2019-02-21T19:25:21.020Z,5.92
2019-02-21T19:27:47.275Z,5.94
2019-02-21T19:30:17.323Z,5.94
2019-02-21T19:32:43.562Z,5.95
2019-02-21T19:35:09.749Z,5.96
2019-02-21T19:37:36.090Z,5.97
2019-02-21T19:40:05.208Z,5.98
2019-02-21T19:42:31.508Z,5.98
2019-02-21T19:44:57.690Z,6.03
2019-02-21T19:47:23.941Z,6.01
2019-02-21T19:49:51.623Z,6.04
2019-02-21T19:52:19.547Z,6.05
2019-02-21T19:54:45.782Z,6.07
2019-02-21T19:57:11.995Z,6.10
2019-02-21T19:59:38.119Z,6.12
2019-02-21T20:02:08.656Z,6.10
2019-02-21T20:04:36.985Z,6.09
2019-02-21T20:07:08.406Z,6.12
2019-02-21T20:09:34.767Z,6.11
2019-02-21T20:12:01.019Z,6.10
2019-02-21T20:14:30.589Z,6.14
2019-02-21T20:16:59.714Z,6.13
2019-02-21T20:19:28.775Z,6.16
2019-02-21T20:21:55.027Z,6.17
2019-02-21T20:24:21.244Z,6.19
2019-02-21T20:26:52.872Z,6.19
2019-02-21T20:29:19.090Z,6.20
2019-02-21T20:31:45.354Z,6.24
2019-02-21T20:34:12.988Z,6.24
2019-02-21T20:36:50.459Z,6.25
2019-02-21T20:39:07.775Z,6.25
2019-02-21T20:41:34.393Z,6.28
2019-02-21T20:44:03.411Z,6.31
2019-02-21T20:46:33.412Z,6.26
2019-02-21T20:49:01.683Z,6.23
2019-02-21T20:51:27.977Z,6.22
2019-02-21T20:53:54.208Z,6.20
2019-02-21T20:56:25.468Z,6.19
2019-02-21T20:58:52.732Z,6.20
2019-02-21T21:01:22.861Z,6.20
2019-02-21T21:03:49.122Z,6.17
2019-02-21T21:06:15.211Z,6.13
2019-02-21T21:08:44.328Z,6.11
2019-02-21T21:11:13.126Z,6.11
2019-02-21T21:13:44.167Z,6.07
2019-02-21T21:16:14.406Z,6.03
2019-02-21T21:18:40.777Z,6.02
2019-02-21T21:21:10.638Z,6.02
2019-02-21T21:23:36.844Z,6.00
2019-02-21T21:26:03.224Z,5.99
2019-02-21T21:28:29.537Z,5.98
2019-02-21T21:30:55.701Z,5.99
2019-02-21T21:33:21.943Z,6.01
2019-02-21T21:35:48.128Z,6.01
2019-02-21T21:38:23.693Z,6.00
2019-02-21T21:40:42.467Z,6.00
2019-02-21T21:43:08.565Z,6.00
2019-02-21T21:45:34.789Z,5.96
2019-02-21T21:48:01.703Z,5.97
2019-02-21T21:50:29.014Z,5.96
2019-02-21T21:52:55.175Z,5.98
2019-02-21T21:55:23.708Z,5.98
2019-02-21T21:57:49.917Z,5.95
2019-02-21T22:00:21.128Z,5.95
2019-02-21T22:02:47.443Z,5.93
2019-02-21T22:05:13.667Z,5.92
2019-02-21T22:07:42.612Z,5.91
2019-02-21T22:10:13.052Z,5.91
2019-02-21T22:12:39.223Z,5.92
2019-02-21T22:15:08.703Z,5.87
2019-02-21T22:17:34.853Z,5.89
2019-02-21T22:20:00.994Z,5.88
2019-02-21T22:22:27.217Z,5.88
2019-02-21T22:24:56.543Z,5.88
2019-02-21T22:27:24.822Z,5.85
2019-02-21T22:29:51.205Z,5.87
2019-02-21T22:32:17.425Z,5.86
2019-02-21T22:34:43.755Z,5.83
2019-02-21T22:37:09.918Z,5.85
2019-02-21T22:39:36.167Z,5.84
2019-02-21T22:42:03.757Z,5.84
2019-02-21T22:44:31.749Z,5.82
2019-02-21T22:46:57.986Z,5.84
2019-02-21T22:49:24.076Z,5.84
2019-02-21T22:51:50.271Z,5.83
2019-02-21T22:54:18.578Z,5.83
2019-02-21T22:56:47.605Z,5.84
2019-02-21T22:59:17.564Z,5.83
2019-02-21T23:01:43.847Z,5.82
2019-02-21T23:04:14.570Z,5.83
2019-02-21T23:06:52.482Z,5.84
2019-02-21T23:09:28.309Z,5.86
2019-02-21T23:11:54.679Z,5.83
2019-02-21T23:14:20.788Z,5.84
2019-02-21T23:16:47.008Z,5.83
2019-02-21T23:19:13.792Z,5.83
2019-02-21T23:21:39.991Z,5.85
2019-02-21T23:24:06.085Z,5.84
2019-02-21T23:26:32.424Z,5.85
2019-02-21T23:29:00.807Z,5.85
2019-02-21T23:31:27.011Z,5.83
2019-02-21T23:33:59.308Z,5.85
2019-02-21T23:36:25.518Z,5.86
2019-02-21T23:38:51.625Z,5.86
2019-02-21T23:41:20.885Z,5.87
2019-02-21T23:43:47.350Z,5.86
2019-02-21T23:46:13.728Z,5.85
2019-02-21T23:48:43.745Z,5.87
2019-02-21T23:51:11.818Z,5.90
2019-02-21T23:53:37.920Z,5.89
2019-02-21T23:56:11.832Z,5.86
2019-02-21T23:58:37.924Z,5.87
